Messwerte Norway House

Temperatur

Temperatur
°C
1575550800 7.00 7.00 -14
1575554400 8.00 8.00 -14
1575558000 9.00 9.00 -15
1575561600 10.00 10.00
1575565200 11.00 11.00 -17
1575568800 12.00 12.00 -18
1575572400 13.00 13.00 -17
1575576000 14.00 14.00 -17
1575579600 15.00 15.00 -18
1575583200 16.00 16.00 -18
1575586800 17.00 17.00 -20
1575590400 18.00 18.00 -22
1575594000 19.00 19.00 -22
1575597600 20.00 20.00
1575601200 21.00 21.00 -19
1575604800 22.00 22.00 -18
1575608400 23.00 23.00 -18
1575612000 0.00 0.00 -18
1575615600 1.00 1.00 -19
1575619200 2.00 2.00 -20
1575622800 3.00 3.00 -19
1575626400 4.00 4.00 -16
1575630000 5.00 5.00 -15
1575633600 6.00 6.00 -14

Aktuellste Messwerte

Wettercharakter
Wetter: bedeckt, etwas Schnee
Temperatur
-14 °C
Feuchtigkeit
85 %
Wind
20 km/hWindrichtung: Süd
Luftdruck
1018 hPa
Messzeit: 6. Dezember 2019, 6.00Datenquelle: METAR

Weitere Messstationen in der Nähe

Messstation Temperatur Entfernung
George Island -13 °C 127 km
Grand Rapids -14 °C 127 km
Berens River CS -16 °C 186 km
Berens River Airport - 186 km
Thompson -22 °C 206 km
Island Lake -21 °C 210 km
The Pas -10 °C 212 km

Wind

Windrichtung Böen Mittelwind
° km/h km/h
1575550800 7.00 6.00 - 7.00 330° 15
1575554400 8.00 7.00 - 8.00 330° 15
1575558000 9.00 8.00 - 9.00 340° 30 15
1575561600 10.00 9.00 - 10.00
1575565200 11.00 10.00 - 11.00 350° 30 15
1575568800 12.00 11.00 - 12.00 350° 15
1575572400 13.00 12.00 - 13.00 330° 15
1575576000 14.00 13.00 - 14.00 310° 15
1575579600 15.00 14.00 - 15.00 300° 10
1575583200 16.00 15.00 - 16.00 310° 10
1575586800 17.00 16.00 - 17.00 300° 5
1575590400 18.00 17.00 - 18.00 220° 5
1575594000 19.00 18.00 - 19.00 180° 5
1575597600 20.00 19.00 - 20.00
1575601200 21.00 20.00 - 21.00 240° 5
1575604800 22.00 21.00 - 22.00 210° 5
1575608400 23.00 22.00 - 23.00 200° 5
1575612000 0.00 23.00 - 0.00 200° 5
1575615600 1.00 0.00 - 1.00 200° 5
1575619200 2.00 1.00 - 2.00 190° 5
1575622800 3.00 2.00 - 3.00 190° 5
1575626400 4.00 3.00 - 4.00 180° 5
1575630000 5.00 4.00 - 5.00 190° 15
1575633600 6.00 5.00 - 6.00 190° 20

Ihre Wetterstation

Fehlt Ihre Wetterstation auf unserem Portal?

Schreiben Sie an network@meteonews.ch

Klima

Wann ist es am wärmsten? Wann regnet es am wenigsten? Unsere Klimadaten geben Auskunft.